Time;durP1;ratioP1;P1;durP2;ratioP2;P2;SDS_P1;SDS_P2;PMS_P1;PMS_P2;Temp;Humidity;BMP_temperature;BMP_pressure;BME280_temperature;BME280_humidity;BME280_pressure;Samples;Min_cycle;Max_cycle;Signal;HPM_P1;HPM_P2
2021/05/05 00:01:29;;;;;;;1.83;0.50;;;;;;;;;;4956055;28;20037;-82
2021/05/05 00:04:14;;;;;;;0.73;0.55;;;;;;;;;;4956545;28;20023;-80
2021/05/05 00:07:00;;;;;;;1.50;0.52;;;;;;;;;;4957696;28;20385;-81
2021/05/05 00:09:45;;;;;;;0.98;0.60;;;;;;;;;;4959990;28;20514;-81
2021/05/05 00:12:30;;;;;;;1.88;0.77;;;;;;;;;;4953899;28;20031;-81
2021/05/05 00:15:17;;;;;;;2.13;1.02;;;;;;;;;;4956726;28;20105;-81
2021/05/05 00:18:02;;;;;;;0.80;0.70;;;;;;;;;;4955739;28;21433;-82
2021/05/05 00:20:47;;;;;;;2.10;0.70;;;;;;;;;;4961510;28;20031;-81
2021/05/05 00:23:32;;;;;;;1.25;0.60;;;;;;;;;;4953845;28;20034;-81
2021/05/05 00:26:18;;;;;;;1.80;0.60;;;;;;;;;;4959233;28;20041;-81
2021/05/05 00:29:03;;;;;;;3.63;0.85;;;;;;;;;;4956044;28;20022;-81
2021/05/05 00:31:48;;;;;;;1.88;0.50;;;;;;;;;;4958586;28;20019;-81
2021/05/05 00:34:34;;;;;;;3.55;0.98;;;;;;;;;;4953261;28;20505;-82
2021/05/05 00:37:19;;;;;;;2.33;0.77;;;;;;;;;;4957348;28;20121;-81
2021/05/05 00:40:05;;;;;;;3.15;0.80;;;;;;;;;;4956246;28;20038;-81
2021/05/05 00:42:50;;;;;;;1.10;0.65;;;;;;;;;;4957722;28;20023;-82
2021/05/05 00:45:35;;;;;;;3.42;0.80;;;;;;;;;;4953617;28;20501;-82
2021/05/05 00:48:21;;;;;;;4.70;0.80;;;;;;;;;;4958362;28;20038;-82
2021/05/05 00:51:06;;;;;;;1.92;0.90;;;;;;;;;;4953630;28;20035;-82
2021/05/05 00:53:51;;;;;;;3.85;1.33;;;;;;;;;;4961095;28;20027;-82
2021/05/05 00:56:37;;;;;;;1.27;0.70;;;;;;;;;;4956357;28;20386;-82
2021/05/05 00:59:23;;;;;;;1.17;0.70;;;;;;;;;;4953947;28;20030;-82
2021/05/05 01:02:08;;;;;;;1.75;0.80;;;;;;;;;;4956231;28;20081;-81
2021/05/05 01:04:54;;;;;;;1.52;0.75;;;;;;;;;;4953066;28;20711;-82
2021/05/05 01:07:39;;;;;;;2.97;1.00;;;;;;;;;;4963139;28;20027;-82
2021/05/05 01:10:24;;;;;;;2.92;1.27;;;;;;;;;;4963377;28;20027;-81
2021/05/05 01:13:10;;;;;;;2.00;0.75;;;;;;;;;;4957355;28;20430;-81
2021/05/05 01:15:56;;;;;;;2.80;0.85;;;;;;;;;;4954221;28;20030;-82
2021/05/05 01:18:42;;;;;;;4.25;1.20;;;;;;;;;;4963445;28;20022;-81
2021/05/05 01:21:27;;;;;;;3.17;1.00;;;;;;;;;;4957432;28;20027;-82
2021/05/05 01:24:12;;;;;;;2.47;0.75;;;;;;;;;;4957564;28;20031;-82
2021/05/05 01:26:57;;;;;;;3.45;0.98;;;;;;;;;;4954908;28;20077;-82
2021/05/05 01:29:44;;;;;;;4.63;1.85;;;;;;;;;;4956307;28;20047;-81
2021/05/05 01:32:29;;;;;;;2.33;0.90;;;;;;;;;;4954371;28;20053;-82
2021/05/05 01:35:15;;;;;;;4.95;1.77;;;;;;;;;;4956429;28;20023;-82
2021/05/05 01:38:01;;;;;;;3.40;1.20;;;;;;;;;;4945902;28;20023;-82
2021/05/05 01:40:46;;;;;;;2.65;1.00;;;;;;;;;;4959370;28;20026;-82
2021/05/05 01:43:32;;;;;;;1.45;0.80;;;;;;;;;;4958758;28;20109;-82
2021/05/05 01:46:18;;;;;;;3.42;0.90;;;;;;;;;;4955388;28;20026;-83
2021/05/05 01:49:03;;;;;;;2.88;1.00;;;;;;;;;;4962581;28;20023;-82
2021/05/05 01:51:51;;;;;;;1.95;1.08;;;;;;;;;;4960051;28;20023;-82
2021/05/05 01:54:37;;;;;;;2.10;0.80;;;;;;;;;;4954549;28;20027;-84
2021/05/05 01:57:28;;;;;;;1.67;0.80;;;;;;;;;;4956394;28;20069;-84
2021/05/05 02:00:15;;;;;;;2.70;1.00;;;;;;;;;;4958360;28;20053;-82
2021/05/05 02:03:00;;;;;;;3.90;1.33;;;;;;;;;;4952383;28;20019;-83
2021/05/05 02:05:45;;;;;;;5.20;1.20;;;;;;;;;;4956497;28;20073;-83
2021/05/05 02:08:30;;;;;;;3.03;1.05;;;;;;;;;;4952168;28;20121;-81
2021/05/05 02:11:16;;;;;;;8.48;1.10;;;;;;;;;;4954657;28;20035;-80
2021/05/05 02:14:02;;;;;;;2.70;0.80;;;;;;;;;;4957027;28;20632;-81
2021/05/05 02:16:47;;;;;;;2.05;0.90;;;;;;;;;;4964636;28;20034;-82
2021/05/05 02:19:32;;;;;;;4.82;0.98;;;;;;;;;;4954544;28;20418;-81
2021/05/05 02:22:17;;;;;;;1.65;0.90;;;;;;;;;;4958291;28;20034;-82
2021/05/05 02:25:03;;;;;;;2.53;0.82;;;;;;;;;;4962976;28;20066;-82
2021/05/05 02:27:50;;;;;;;4.32;0.93;;;;;;;;;;4950300;28;20026;-82
2021/05/05 02:30:35;;;;;;;3.55;0.90;;;;;;;;;;4969503;28;20031;-83
2021/05/05 02:33:20;;;;;;;1.20;0.70;;;;;;;;;;4961940;28;20035;-83
2021/05/05 02:36:05;;;;;;;3.95;1.42;;;;;;;;;;4963160;28;20046;-83
2021/05/05 02:38:51;;;;;;;2.45;0.90;;;;;;;;;;4954826;28;20562;-82
2021/05/05 02:41:38;;;;;;;8.68;1.27;;;;;;;;;;4956786;28;20397;-82
2021/05/05 02:44:23;;;;;;;3.55;0.98;;;;;;;;;;4961481;28;20039;-83
2021/05/05 02:47:08;;;;;;;2.20;0.93;;;;;;;;;;4968637;28;20386;-81
2021/05/05 02:49:53;;;;;;;3.85;1.15;;;;;;;;;;4956241;28;20022;-82
2021/05/05 02:52:39;;;;;;;2.08;0.80;;;;;;;;;;4965972;28;21838;-82
2021/05/05 02:55:24;;;;;;;5.20;1.10;;;;;;;;;;4960324;28;20037;-83
2021/05/05 02:58:10;;;;;;;2.08;0.98;;;;;;;;;;4959541;28;20426;-82
2021/05/05 03:00:55;;;;;;;3.10;1.27;;;;;;;;;;4959631;28;21081;-82
2021/05/05 03:03:41;;;;;;;5.43;0.90;;;;;;;;;;4971483;28;20038;-81
2021/05/05 03:06:27;;;;;;;2.72;1.20;;;;;;;;;;4956976;28;20042;-82
2021/05/05 03:09:13;;;;;;;4.45;1.20;;;;;;;;;;4985637;28;20082;-82
2021/05/05 03:11:58;;;;;;;2.35;1.30;;;;;;;;;;4964804;28;20027;-83
2021/05/05 03:14:44;;;;;;;1.92;0.90;;;;;;;;;;4957788;28;20022;-81
2021/05/05 03:17:29;;;;;;;6.03;1.20;;;;;;;;;;4985628;28;20094;-82
2021/05/05 03:20:14;;;;;;;3.05;1.02;;;;;;;;;;4956382;28;20018;-82
2021/05/05 03:23:00;;;;;;;4.22;1.20;;;;;;;;;;4966660;28;20045;-82
2021/05/05 03:25:45;;;;;;;2.80;1.30;;;;;;;;;;4965854;28;20594;-82
2021/05/05 03:28:30;;;;;;;2.53;1.00;;;;;;;;;;4964504;28;20019;-82
2021/05/05 03:31:15;;;;;;;2.85;1.00;;;;;;;;;;4958838;28;20669;-82
2021/05/05 03:34:01;;;;;;;4.60;1.63;;;;;;;;;;4961663;28;20019;-82
2021/05/05 03:36:46;;;;;;;3.63;1.05;;;;;;;;;;4956356;28;20031;-82
2021/05/05 03:39:32;;;;;;;2.13;1.10;;;;;;;;;;4959474;28;20700;-83
2021/05/05 03:42:17;;;;;;;2.90;1.20;;;;;;;;;;4960365;28;20034;-82
2021/05/05 03:45:06;;;;;;;4.28;1.60;;;;;;;;;;4984504;28;20023;-83
2021/05/05 03:47:52;;;;;;;5.10;1.20;;;;;;;;;;4959002;28;20070;-82
2021/05/05 03:50:37;;;;;;;5.43;1.00;;;;;;;;;;4956667;28;20026;-82
2021/05/05 03:53:22;;;;;;;5.10;1.70;;;;;;;;;;4960496;28;20027;-83
2021/05/05 03:56:07;;;;;;;2.90;0.90;;;;;;;;;;4962672;28;20030;-83
2021/05/05 03:58:52;;;;;;;2.45;0.90;;;;;;;;;;4964588;28;20076;-84
2021/05/05 04:01:38;;;;;;;3.55;1.00;;;;;;;;;;4955921;28;20046;-85
2021/05/05 04:04:23;;;;;;;2.70;1.00;;;;;;;;;;4956142;28;20041;-84
2021/05/05 04:07:08;;;;;;;0.85;0.80;;;;;;;;;;4954667;28;20047;-83
2021/05/05 04:09:55;;;;;;;3.78;1.08;;;;;;;;;;4967917;28;20026;-83
2021/05/05 04:12:40;;;;;;;4.03;1.25;;;;;;;;;;4960620;28;20057;-82
2021/05/05 04:15:26;;;;;;;2.95;0.90;;;;;;;;;;4956497;28;20030;-83
2021/05/05 04:18:11;;;;;;;3.08;1.00;;;;;;;;;;4950328;28;20050;-82
2021/05/05 04:21:00;;;;;;;4.40;0.90;;;;;;;;;;4987816;28;20035;-83
2021/05/05 04:23:45;;;;;;;1.38;0.88;;;;;;;;;;4964890;28;20026;-80
2021/05/05 04:26:30;;;;;;;1.42;1.00;;;;;;;;;;4958669;28;20134;-80
2021/05/05 04:29:15;;;;;;;3.60;1.05;;;;;;;;;;4956352;28;20453;-79
2021/05/05 04:32:01;;;;;;;3.25;1.00;;;;;;;;;;4959539;28;20073;-80
2021/05/05 04:34:46;;;;;;;2.60;0.90;;;;;;;;;;4962889;28;20108;-83
2021/05/05 04:37:31;;;;;;;1.70;0.90;;;;;;;;;;4954278;28;20065;-81
2021/05/05 04:40:17;;;;;;;1.77;0.80;;;;;;;;;;4962341;28;20085;-80
2021/05/05 04:43:02;;;;;;;1.30;0.85;;;;;;;;;;4959610;28;20110;-81
2021/05/05 04:45:48;;;;;;;0.63;0.63;;;;;;;;;;4957155;28;20184;-79
2021/05/05 04:48:34;;;;;;;2.83;0.85;;;;;;;;;;4961746;28;20109;-80
2021/05/05 04:51:19;;;;;;;2.42;0.93;;;;;;;;;;4957317;28;20018;-80
2021/05/05 04:54:06;;;;;;;3.67;0.80;;;;;;;;;;4958438;28;20077;-79
2021/05/05 04:56:51;;;;;;;1.73;0.80;;;;;;;;;;4950585;28;20033;-81
2021/05/05 04:59:36;;;;;;;2.42;1.08;;;;;;;;;;4954765;28;20089;-80
2021/05/05 05:02:21;;;;;;;2.95;0.75;;;;;;;;;;4958896;28;20034;-80
2021/05/05 05:05:07;;;;;;;1.90;0.93;;;;;;;;;;4960109;28;20102;-80
2021/05/05 05:07:54;;;;;;;1.70;0.80;;;;;;;;;;4965804;28;20022;-81
2021/05/05 05:10:39;;;;;;;2.83;1.27;;;;;;;;;;4954804;28;20026;-80
2021/05/05 05:13:24;;;;;;;2.05;0.90;;;;;;;;;;4957681;28;20073;-81
2021/05/05 05:16:10;;;;;;;1.60;0.82;;;;;;;;;;4953273;28;20108;-82
2021/05/05 05:18:55;;;;;;;1.38;0.70;;;;;;;;;;4956211;28;20606;-81
2021/05/05 05:21:40;;;;;;;1.42;0.77;;;;;;;;;;4954079;28;20089;-81
2021/05/05 05:24:26;;;;;;;1.33;0.80;;;;;;;;;;4956647;28;20038;-80
2021/05/05 05:27:11;;;;;;;2.72;0.90;;;;;;;;;;4956363;28;20042;-81
2021/05/05 05:29:57;;;;;;;2.13;0.80;;;;;;;;;;4954346;28;20026;-81
2021/05/05 05:32:43;;;;;;;3.45;1.02;;;;;;;;;;4953424;28;20019;-80
2021/05/05 05:35:28;;;;;;;2.83;0.80;;;;;;;;;;4954340;28;20477;-81
2021/05/05 05:38:13;;;;;;;1.92;1.00;;;;;;;;;;4954582;28;20034;-81
2021/05/05 05:40:58;;;;;;;2.80;0.90;;;;;;;;;;4954840;28;20038;-82
2021/05/05 05:43:43;;;;;;;3.90;1.17;;;;;;;;;;4956647;28;20041;-81
2021/05/05 05:46:29;;;;;;;2.88;1.17;;;;;;;;;;4957429;28;20026;-82
2021/05/05 05:49:25;;;;;;;1.77;0.88;;;;;;;;;;4961536;28;20025;-82
2021/05/05 05:52:11;;;;;;;3.40;1.10;;;;;;;;;;4957014;28;20030;-84
2021/05/05 05:54:57;;;;;;;4.72;1.05;;;;;;;;;;4965990;28;20030;-83
2021/05/05 05:57:47;;;;;;;6.10;1.38;;;;;;;;;;4953160;28;20018;-82
2021/05/05 06:00:32;;;;;;;4.15;1.33;;;;;;;;;;4959610;28;20462;-83
2021/05/05 06:03:18;;;;;;;2.90;1.13;;;;;;;;;;4961843;28;20393;-82
2021/05/05 06:06:03;;;;;;;6.95;1.38;;;;;;;;;;4952341;28;20026;-83
2021/05/05 06:08:49;;;;;;;3.45;1.17;;;;;;;;;;4955538;28;20393;-82
2021/05/05 06:11:34;;;;;;;6.20;1.10;;;;;;;;;;4954064;28;20441;-82
2021/05/05 06:14:19;;;;;;;6.55;1.48;;;;;;;;;;4959204;28;20029;-82
2021/05/05 06:17:04;;;;;;;2.97;1.20;;;;;;;;;;4953409;28;20085;-82
2021/05/05 06:19:50;;;;;;;5.57;1.30;;;;;;;;;;4959167;28;20068;-84
2021/05/05 06:22:38;;;;;;;6.82;1.75;;;;;;;;;;4953695;28;20061;-80
2021/05/05 06:25:23;;;;;;;4.03;1.40;;;;;;;;;;4945094;28;20557;-81
2021/05/05 06:28:09;;;;;;;6.63;2.00;;;;;;;;;;4959494;28;20081;-80
2021/05/05 06:30:57;;;;;;;7.32;1.60;;;;;;;;;;4964741;28;20482;-80
2021/05/05 06:33:42;;;;;;;4.28;1.58;;;;;;;;;;4952803;28;20669;-82
2021/05/05 06:36:27;;;;;;;3.33;1.60;;;;;;;;;;4962815;28;20030;-82
2021/05/05 06:39:13;;;;;;;5.70;1.90;;;;;;;;;;4961127;28;20105;-82
2021/05/05 06:42:06;;;;;;;4.80;1.48;;;;;;;;;;4955613;28;20758;-82
2021/05/05 06:44:51;;;;;;;4.03;1.50;;;;;;;;;;4953066;28;20034;-83
2021/05/05 06:47:36;;;;;;;8.45;1.70;;;;;;;;;;4950729;28;20039;-82
2021/05/05 06:50:23;;;;;;;4.30;1.83;;;;;;;;;;4952947;28;20031;-82
2021/05/05 06:53:08;;;;;;;6.38;3.25;;;;;;;;;;4961831;28;20031;-82
2021/05/05 06:55:53;;;;;;;6.10;2.25;;;;;;;;;;4954686;28;20141;-82
2021/05/05 06:58:41;;;;;;;7.07;1.95;;;;;;;;;;4956741;28;20019;-87
2021/05/05 07:01:29;;;;;;;4.75;1.90;;;;;;;;;;4963568;28;20038;-87
2021/05/05 07:04:23;;;;;;;8.05;2.15;;;;;;;;;;4956433;28;20414;-88
2021/05/05 07:07:11;;;;;;;4.72;2.00;;;;;;;;;;4968864;28;20023;-84
2021/05/05 07:09:57;;;;;;;8.93;2.10;;;;;;;;;;4958596;28;20101;-87
2021/05/05 07:12:42;;;;;;;5.22;2.05;;;;;;;;;;4944748;28;20030;-84
2021/05/05 07:15:28;;;;;;;4.95;1.70;;;;;;;;;;4970539;28;20034;-88
2021/05/05 07:18:14;;;;;;;6.70;2.28;;;;;;;;;;4960467;28;20474;-82
2021/05/05 07:20:59;;;;;;;7.65;2.30;;;;;;;;;;4964406;28;20509;-81
2021/05/05 07:23:44;;;;;;;8.35;2.95;;;;;;;;;;4958668;28;20063;-82
2021/05/05 07:26:32;;;;;;;7.97;2.88;;;;;;;;;;4955199;28;20047;-81
2021/05/05 07:29:20;;;;;;;6.32;2.13;;;;;;;;;;4955132;28;20024;-81
2021/05/05 07:32:06;;;;;;;9.20;2.17;;;;;;;;;;4969812;28;20522;-83
2021/05/05 07:34:53;;;;;;;3.60;1.60;;;;;;;;;;4955957;28;20022;-83
2021/05/05 07:47:10;;;;;;;5.15;2.10;;;;;;;;;;4969021;28;20034;-84
2021/05/05 07:49:56;;;;;;;7.72;1.88;;;;;;;;;;4955933;28;20034;-80
2021/05/05 07:52:42;;;;;;;8.13;2.20;;;;;;;;;;4947670;28;20054;-81
2021/05/05 07:55:30;;;;;;;6.90;2.05;;;;;;;;;;4965655;28;20462;-83
2021/05/05 07:58:15;;;;;;;6.32;2.08;;;;;;;;;;4957230;28;20031;-80
2021/05/05 08:01:01;;;;;;;6.68;2.03;;;;;;;;;;4957418;28;20031;-83
2021/05/05 08:03:46;;;;;;;3.90;1.48;;;;;;;;;;4959179;28;20121;-82
2021/05/05 08:06:32;;;;;;;12.95;5.63;;;;;;;;;;4955553;28;20019;-84
2021/05/05 08:09:17;;;;;;;12.95;6.97;;;;;;;;;;4961363;28;20019;-82
2021/05/05 08:12:02;;;;;;;7.63;2.30;;;;;;;;;;4958896;28;20033;-86
2021/05/05 08:14:50;;;;;;;5.78;1.90;;;;;;;;;;4959066;28;20105;-83
2021/05/05 08:17:36;;;;;;;4.43;1.63;;;;;;;;;;4954963;28;20031;-84
2021/05/05 08:20:24;;;;;;;8.15;2.10;;;;;;;;;;4954925;28;20054;-84
2021/05/05 08:23:10;;;;;;;8.10;2.10;;;;;;;;;;4955877;28;20018;-81
2021/05/05 08:25:55;;;;;;;4.97;2.17;;;;;;;;;;4954611;28;20042;-84
2021/05/05 08:28:41;;;;;;;4.57;2.20;;;;;;;;;;4954751;28;20066;-85
2021/05/05 08:31:26;;;;;;;5.53;2.13;;;;;;;;;;4961047;28;20100;-81
2021/05/05 08:34:14;;;;;;;6.25;2.17;;;;;;;;;;4960712;28;20019;-86
2021/05/05 08:37:00;;;;;;;8.77;2.45;;;;;;;;;;4954995;28;20029;-81
2021/05/05 08:39:45;;;;;;;8.15;2.83;;;;;;;;;;4960249;28;20862;-81
2021/05/05 08:42:31;;;;;;;11.00;2.83;;;;;;;;;;4959560;28;20492;-80
2021/05/05 08:45:18;;;;;;;5.85;2.55;;;;;;;;;;4953534;28;20014;-83
2021/05/05 08:48:04;;;;;;;5.90;1.67;;;;;;;;;;4967213;28;20022;-86
2021/05/05 08:50:50;;;;;;;13.90;5.85;;;;;;;;;;4954427;28;20414;-82
2021/05/05 08:53:35;;;;;;;4.38;2.13;;;;;;;;;;4954347;28;20058;-83
2021/05/05 08:56:20;;;;;;;5.90;2.35;;;;;;;;;;4954681;28;20031;-81
2021/05/05 08:59:07;;;;;;;6.45;2.47;;;;;;;;;;4958789;28;20026;-83
2021/05/05 09:01:52;;;;;;;5.05;1.95;;;;;;;;;;4966708;28;20077;-84
2021/05/05 09:04:40;;;;;;;4.20;1.85;;;;;;;;;;4964963;28;20031;-84
2021/05/05 09:07:32;;;;;;;7.85;1.73;;;;;;;;;;4960231;28;20096;-82
2021/05/05 09:10:19;;;;;;;6.40;1.65;;;;;;;;;;4954714;28;20054;-82
2021/05/05 09:13:05;;;;;;;7.93;2.47;;;;;;;;;;4956542;28;20387;-81
2021/05/05 09:16:05;;;;;;;4.70;2.30;;;;;;;;;;4955236;28;20401;-81
2021/05/05 09:18:58;;;;;;;6.97;2.17;;;;;;;;;;4952287;28;20023;-81
2021/05/05 09:21:45;;;;;;;6.80;1.92;;;;;;;;;;4965499;28;20497;-81
2021/05/05 09:24:33;;;;;;;5.15;1.98;;;;;;;;;;4954887;28;20410;-82
2021/05/05 09:27:19;;;;;;;6.65;1.67;;;;;;;;;;4951206;28;20101;-81
2021/05/05 09:30:06;;;;;;;10.32;2.65;;;;;;;;;;4952011;28;20038;-83
2021/05/05 09:32:52;;;;;;;4.28;1.38;;;;;;;;;;4960750;28;20062;-79
2021/05/05 09:35:38;;;;;;;8.75;1.35;;;;;;;;;;4957711;28;20110;-79
2021/05/05 09:38:38;;;;;;;6.65;2.00;;;;;;;;;;4953749;28;20080;-81
2021/05/05 09:41:23;;;;;;;5.82;2.08;;;;;;;;;;4949491;28;20065;-82
2021/05/05 09:44:08;;;;;;;4.78;1.60;;;;;;;;;;4958565;28;20053;-82
2021/05/05 09:46:58;;;;;;;4.85;1.52;;;;;;;;;;4959674;28;20034;-83
2021/05/05 09:49:44;;;;;;;5.15;1.63;;;;;;;;;;4959304;28;20069;-82
2021/05/05 09:52:30;;;;;;;11.38;6.45;;;;;;;;;;4955721;28;20033;-79
2021/05/05 09:55:18;;;;;;;8.23;3.97;;;;;;;;;;4966380;28;20026;-79
2021/05/05 09:58:22;;;;;;;5.63;1.88;;;;;;;;;;4955014;28;20045;-78
2021/05/05 10:01:09;;;;;;;3.50;1.90;;;;;;;;;;4957438;28;20489;-79
2021/05/05 10:03:55;;;;;;;6.30;1.80;;;;;;;;;;4959818;28;20088;-78
2021/05/05 10:06:40;;;;;;;4.32;1.88;;;;;;;;;;4957044;28;20089;-79
2021/05/05 10:09:26;;;;;;;5.55;2.05;;;;;;;;;;4951968;28;20062;-78
2021/05/05 10:12:11;;;;;;;4.55;1.45;;;;;;;;;;4956919;28;20027;-78
2021/05/05 10:14:57;;;;;;;6.97;2.05;;;;;;;;;;4953348;28;20114;-78
2021/05/05 10:17:47;;;;;;;5.88;2.05;;;;;;;;;;4954610;28;20498;-79
2021/05/05 10:20:32;;;;;;;5.10;2.22;;;;;;;;;;4957549;28;20488;-80
2021/05/05 10:23:17;;;;;;;11.02;2.08;;;;;;;;;;4952586;28;20478;-79
2021/05/05 10:26:03;;;;;;;6.70;1.92;;;;;;;;;;4955670;28;20134;-78
2021/05/05 10:28:51;;;;;;;6.50;1.60;;;;;;;;;;4956528;28;20507;-80
2021/05/05 10:31:37;;;;;;;5.35;1.80;;;;;;;;;;4950377;28;20029;-79
2021/05/05 10:34:24;;;;;;;7.22;2.55;;;;;;;;;;4955280;28;20113;-79
2021/05/05 10:37:09;;;;;;;6.10;1.63;;;;;;;;;;4951025;28;20401;-79
2021/05/05 10:39:54;;;;;;;6.95;2.00;;;;;;;;;;4966538;28;20490;-79
2021/05/05 10:42:48;;;;;;;4.70;1.90;;;;;;;;;;4952004;28;20035;-79
2021/05/05 10:45:41;;;;;;;5.50;1.63;;;;;;;;;;4958081;28;20143;-80
2021/05/05 10:48:28;;;;;;;6.13;1.60;;;;;;;;;;4966226;28;20717;-80
2021/05/05 10:51:13;;;;;;;5.28;1.80;;;;;;;;;;4957225;28;20080;-82
2021/05/05 10:53:58;;;;;;;15.63;4.28;;;;;;;;;;4956791;28;20030;-82
2021/05/05 10:57:04;;;;;;;6.30;1.40;;;;;;;;;;4956717;28;20030;-82
2021/05/05 11:00:08;;;;;;;1.55;0.88;;;;;;;;;;4953669;28;20376;-83
2021/05/05 11:02:58;;;;;;;0.63;0.60;;;;;;;;;;4972471;28;20041;-83
2021/05/05 11:05:45;;;;;;;2.47;0.82;;;;;;;;;;4961124;28;20050;-82
2021/05/05 11:08:30;;;;;;;1.10;0.80;;;;;;;;;;4954632;28;20030;-83
2021/05/05 11:11:33;;;;;;;1.65;0.90;;;;;;;;;;4959224;28;20393;-83
2021/05/05 11:14:24;;;;;;;1.75;0.90;;;;;;;;;;4965653;28;20035;-83
2021/05/05 11:17:11;;;;;;;1.10;0.90;;;;;;;;;;4965015;28;20026;-83
2021/05/05 11:19:56;;;;;;;2.90;1.00;;;;;;;;;;4952294;28;20030;-84
2021/05/05 11:22:42;;;;;;;1.13;0.93;;;;;;;;;;4959117;28;20363;-84
2021/05/05 11:25:28;;;;;;;1.70;0.80;;;;;;;;;;4959467;28;20046;-85
2021/05/05 11:28:13;;;;;;;2.00;1.00;;;;;;;;;;4965990;28;20027;-84
2021/05/05 11:30:59;;;;;;;2.67;1.20;;;;;;;;;;4967431;28;20425;-84
2021/05/05 11:34:11;;;;;;;1.55;1.10;;;;;;;;;;4966446;28;20370;-85
2021/05/05 11:36:59;;;;;;;2.05;1.20;;;;;;;;;;4947752;28;20545;-84
2021/05/05 11:39:46;;;;;;;0.95;0.82;;;;;;;;;;4956088;28;20466;-83
2021/05/05 11:42:36;;;;;;;5.93;1.00;;;;;;;;;;4957882;28;20054;-82
2021/05/05 11:45:22;;;;;;;2.15;1.30;;;;;;;;;;4964049;28;20400;-83
2021/05/05 11:48:07;;;;;;;2.90;1.17;;;;;;;;;;4971135;28;20027;-81
2021/05/05 11:50:52;;;;;;;2.55;0.90;;;;;;;;;;4958495;28;20053;-82
2021/05/05 11:53:37;;;;;;;1.98;1.05;;;;;;;;;;4961925;28;20021;-82
2021/05/05 11:56:24;;;;;;;2.95;1.10;;;;;;;;;;4966448;28;20030;-83
2021/05/05 11:59:10;;;;;;;2.97;1.20;;;;;;;;;;4952504;28;20027;-80
2021/05/05 12:02:02;;;;;;;1.90;1.00;;;;;;;;;;4953084;28;20035;-79
2021/05/05 12:04:47;;;;;;;4.88;1.58;;;;;;;;;;4960282;28;20038;-82
2021/05/05 12:07:33;;;;;;;3.20;1.20;;;;;;;;;;4968885;28;20058;-79
2021/05/05 12:10:18;;;;;;;2.53;1.17;;;;;;;;;;4961936;28;20018;-82
2021/05/05 12:13:04;;;;;;;2.13;1.10;;;;;;;;;;4957748;28;20027;-80
2021/05/05 12:18:45;;;;;;;4.47;1.50;;;;;;;;;;4961315;28;20055;-79
2021/05/05 12:21:30;;;;;;;5.32;1.45;;;;;;;;;;4957324;28;20280;-79
2021/05/05 12:24:15;;;;;;;2.17;1.35;;;;;;;;;;4963721;28;20033;-80
2021/05/05 12:27:05;;;;;;;6.28;1.50;;;;;;;;;;4954852;28;20074;-82
2021/05/05 12:29:56;;;;;;;3.83;1.30;;;;;;;;;;4956824;28;20078;-79
2021/05/05 12:32:42;;;;;;;4.28;1.33;;;;;;;;;;4957378;28;20023;-82
2021/05/05 12:35:28;;;;;;;4.47;1.35;;;;;;;;;;4962518;28;20038;-82
2021/05/05 12:38:15;;;;;;;3.33;1.45;;;;;;;;;;4955958;28;20030;-81
2021/05/05 12:41:02;;;;;;;2.85;1.30;;;;;;;;;;4955880;28;20450;-82
2021/05/05 12:43:49;;;;;;;5.05;1.35;;;;;;;;;;4964259;28;20536;-82
2021/05/05 12:46:54;;;;;;;2.72;1.02;;;;;;;;;;4967667;28;20027;-82
2021/05/05 12:49:42;;;;;;;1.38;0.70;;;;;;;;;;4963926;28;20019;-81
2021/05/05 12:52:30;;;;;;;2.47;1.10;;;;;;;;;;4959261;28;20122;-81
2021/05/05 12:55:23;;;;;;;1.88;1.00;;;;;;;;;;4959328;28;20023;-79
2021/05/05 12:58:13;;;;;;;2.42;0.82;;;;;;;;;;4956858;28;20331;-80
2021/05/05 13:01:08;;;;;;;1.92;1.00;;;;;;;;;;4958569;28;20011;-79
2021/05/05 13:03:53;;;;;;;1.38;0.77;;;;;;;;;;4959533;28;20026;-82
2021/05/05 13:06:39;;;;;;;2.53;1.35;;;;;;;;;;4963386;28;20382;-80
2021/05/05 13:09:24;;;;;;;2.33;0.85;;;;;;;;;;4957282;28;20125;-79
2021/05/05 13:12:31;;;;;;;11.85;7.47;;;;;;;;;;4956143;28;20111;-81
2021/05/05 13:30:48;;;;;;;3.42;1.75;;;;;;;;;;4956543;28;20030;-81
2021/05/05 13:33:33;;;;;;;6.03;1.40;;;;;;;;;;4963123;28;20027;-82
2021/05/05 13:36:18;;;;;;;5.40;1.65;;;;;;;;;;4962612;28;20118;-82
2021/05/05 13:39:03;;;;;;;3.70;1.25;;;;;;;;;;4956225;28;20057;-82
2021/05/05 13:41:50;;;;;;;2.10;1.38;;;;;;;;;;4962079;28;20513;-82
2021/05/05 13:44:56;;;;;;;3.22;1.00;;;;;;;;;;4954159;28;20054;-82
2021/05/05 13:47:47;;;;;;;2.90;1.20;;;;;;;;;;4967271;28;20030;-82
2021/05/05 13:50:33;;;;;;;1.20;0.90;;;;;;;;;;4955277;28;20037;-81
2021/05/05 13:53:18;;;;;;;2.30;1.00;;;;;;;;;;4963532;28;20034;-82
2021/05/05 13:56:05;;;;;;;1.70;0.80;;;;;;;;;;4958280;28;20027;-81
2021/05/05 13:58:50;;;;;;;1.58;0.90;;;;;;;;;;4958580;28;20121;-82
2021/05/05 14:01:35;;;;;;;1.35;0.93;;;;;;;;;;4957386;28;20121;-82
2021/05/05 14:04:20;;;;;;;2.85;1.00;;;;;;;;;;4956672;28;20037;-81
2021/05/05 14:07:08;;;;;;;1.77;1.20;;;;;;;;;;4951404;28;20067;-81
2021/05/05 14:09:53;;;;;;;1.48;1.23;;;;;;;;;;4960856;28;20027;-79
2021/05/05 14:12:38;;;;;;;2.15;1.10;;;;;;;;;;4961081;28;20504;-79
2021/05/05 14:15:30;;;;;;;3.13;1.30;;;;;;;;;;4953513;28;20665;-79
2021/05/05 14:18:15;;;;;;;1.92;1.15;;;;;;;;;;4954980;28;20400;-79
2021/05/05 14:21:06;;;;;;;3.72;1.10;;;;;;;;;;4954920;28;20050;-78
2021/05/05 14:23:52;;;;;;;4.47;1.10;;;;;;;;;;4954792;28;20029;-79
2021/05/05 14:26:38;;;;;;;2.97;1.38;;;;;;;;;;4953789;28;20034;-79
2021/05/05 14:29:24;;;;;;;10.65;5.78;;;;;;;;;;4958171;28;20478;-80
2021/05/05 14:32:09;;;;;;;4.72;1.60;;;;;;;;;;4951412;28;20126;-79
2021/05/05 14:34:54;;;;;;;3.85;1.65;;;;;;;;;;4952868;28;20019;-79
2021/05/05 14:37:41;;;;;;;3.88;1.25;;;;;;;;;;4952471;28;20031;-80
2021/05/05 14:40:26;;;;;;;2.08;1.13;;;;;;;;;;4946660;28;20433;-80
2021/05/05 14:49:09;;;;;;;1.55;1.10;;;;;;;;;;4940038;28;20035;-80
2021/05/05 14:51:54;;;;;;;4.03;1.17;;;;;;;;;;4949744;28;20043;-80
2021/05/05 14:54:39;;;;;;;3.60;1.08;;;;;;;;;;4962738;28;20018;-82
2021/05/05 14:57:30;;;;;;;3.45;1.20;;;;;;;;;;4941212;28;20038;-82
2021/05/05 15:00:15;;;;;;;1.65;1.27;;;;;;;;;;4943392;28;20034;-81
2021/05/05 15:03:02;;;;;;;1.42;1.02;;;;;;;;;;4952536;28;20054;-82
2021/05/05 15:05:53;;;;;;;3.20;1.15;;;;;;;;;;4941777;28;20031;-83
2021/05/05 15:29:21;;;;;;;1.98;0.90;;;;;;;;;;4966885;28;20023;-80
2021/05/05 15:38:26;;;;;;;1.83;0.95;;;;;;;;;;4956588;28;20054;-82
2021/05/05 15:41:25;;;;;;;2.85;0.80;;;;;;;;;;4968092;28;20031;-81
2021/05/05 15:50:04;;;;;;;1.58;0.98;;;;;;;;;;4953395;28;20057;-81
2021/05/05 15:52:56;;;;;;;2.55;0.90;;;;;;;;;;4954528;28;20031;-81
2021/05/05 15:55:43;;;;;;;5.07;1.17;;;;;;;;;;4966163;28;20033;-81
2021/05/05 15:58:31;;;;;;;3.25;0.90;;;;;;;;;;4960229;28;20031;-85
2021/05/05 16:02:11;;;;;;;2.25;0.90;;;;;;;;;;4957622;28;20477;-86
2021/05/05 16:16:36;;;;;;;3.47;1.23;;;;;;;;;;4957684;28;20057;-84
2021/05/05 16:19:25;;;;;;;7.18;3.53;;;;;;;;;;4960364;28;20551;-84
2021/05/05 16:22:19;;;;;;;3.30;1.58;;;;;;;;;;4957572;28;20440;-85
2021/05/05 16:31:54;;;;;;;0.95;0.80;;;;;;;;;;4961320;28;20062;-84
2021/05/05 16:52:27;;;;;;;7.18;2.97;;;;;;;;;;4923795;28;20023;-83
2021/05/05 16:55:17;;;;;;;10.63;5.45;;;;;;;;;;4957265;28;20462;-83
2021/05/05 16:58:15;;;;;;;3.67;1.88;;;;;;;;;;4955509;28;20477;-83
2021/05/05 17:09:45;;;;;;;3.47;1.10;;;;;;;;;;4954727;28;20077;-84
2021/05/05 17:12:31;;;;;;;2.45;1.48;;;;;;;;;;4958728;28;20108;-83
2021/05/05 17:21:19;;;;;;;8.45;3.88;;;;;;;;;;4957543;28;20031;-84
2021/05/05 17:24:16;;;;;;;11.32;7.53;;;;;;;;;;4953733;28;20502;-84
2021/05/05 17:27:10;;;;;;;12.77;5.70;;;;;;;;;;4962008;28;20042;-90
2021/05/05 17:30:08;;;;;;;6.55;2.03;;;;;;;;;;4966219;28;20050;-87
2021/05/05 17:43:04;;;;;;;4.10;1.90;;;;;;;;;;4953472;28;20521;-82
2021/05/05 17:45:05;;;;;;;3.60;1.45;;;;;;;;;;4969960;28;20027;-85
2021/05/05 18:20:56;;;;;;;3.00;1.55;;;;;;;;;;4956426;28;20121;-83
2021/05/05 18:23:47;;;;;;;2.78;1.10;;;;;;;;;;4960103;28;20030;-84
2021/05/05 18:27:01;;;;;;;4.85;1.20;;;;;;;;;;4958480;28;20053;-83
2021/05/05 18:29:43;;;;;;;2.17;1.10;;;;;;;;;;4953230;28;20026;-85
2021/05/05 18:32:28;;;;;;;2.40;1.20;;;;;;;;;;4956502;28;20077;-86
2021/05/05 18:35:22;;;;;;;2.92;1.50;;;;;;;;;;4954962;28;20078;-87
2021/05/05 18:38:10;;;;;;;6.03;2.03;;;;;;;;;;4954995;28;20406;-83
2021/05/05 18:41:10;;;;;;;2.92;1.10;;;;;;;;;;4940644;28;20022;-84
2021/05/05 19:06:43;;;;;;;3.13;0.88;;;;;;;;;;4952628;28;20039;-82
2021/05/05 19:08:52;;;;;;;2.33;1.40;;;;;;;;;;4953568;28;20030;-86
2021/05/05 19:14:44;;;;;;;3.33;1.50;;;;;;;;;;4961174;28;20031;-86
2021/05/05 19:45:06;;;;;;;2.10;1.17;;;;;;;;;;4972260;28;20109;-83
2021/05/05 20:07:39;;;;;;;6.15;3.67;;;;;;;;;;4976483;28;20109;-83
2021/05/05 20:20:43;;;;;;;2.95;1.75;;;;;;;;;;4958647;28;20466;-84
2021/05/05 21:09:55;;;;;;;2.67;1.40;;;;;;;;;;4957759;28;20022;-86
2021/05/05 21:22:19;;;;;;;1.88;1.15;;;;;;;;;;4949503;28;20019;-85
2021/05/05 21:40:21;;;;;;;2.53;1.25;;;;;;;;;;4960939;28;20030;-84
2021/05/05 21:58:51;;;;;;;2.65;1.55;;;;;;;;;;4954235;28;20026;-82
2021/05/05 22:53:20;;;;;;;3.53;1.80;;;;;;;;;;4965913;28;20105;-80
2021/05/05 23:08:52;;;;;;;5.70;1.80;;;;;;;;;;4961445;28;20638;-81
2021/05/05 23:24:05;;;;;;;4.60;1.80;;;;;;;;;;4967971;28;20109;-84
2021/05/05 23:26:52;;;;;;;4.38;2.00;;;;;;;;;;4951850;28;20097;-82
2021/05/05 23:30:11;;;;;;;2.88;1.50;;;;;;;;;;4968631;28;20029;-83
